createdAt,value
2019-05-09T00:03:24.175Z,8.13
2019-05-09T00:08:29.239Z,8.40
2019-05-09T00:13:34.272Z,9.07
2019-05-09T00:18:39.280Z,9.10
2019-05-09T00:23:44.291Z,9.63
2019-05-09T00:28:53.228Z,8.00
2019-05-09T00:33:59.359Z,8.77
2019-05-09T00:39:06.141Z,10.10
2019-05-09T00:44:15.495Z,8.13
2019-05-09T00:49:23.522Z,7.60
2019-05-09T00:54:28.819Z,9.00
2019-05-09T00:59:33.817Z,8.83
2019-05-09T01:04:39.095Z,8.73
2019-05-09T01:09:44.139Z,9.07
2019-05-09T01:14:49.215Z,9.53
2019-05-09T01:19:54.235Z,7.57
2019-05-09T01:24:59.272Z,7.20
2019-05-09T01:30:05.113Z,9.47
2019-05-09T01:35:10.240Z,7.07
2019-05-09T01:40:15.291Z,8.87
2019-05-09T01:45:20.339Z,6.50
2019-05-09T01:50:25.332Z,9.00
2019-05-09T01:55:48.417Z,9.77
2019-05-09T02:00:54.000Z,10.20
2019-05-09T02:05:59.267Z,9.70
2019-05-09T02:11:04.635Z,10.73
2019-05-09T02:16:11.384Z,8.83
2019-05-09T02:21:16.439Z,10.73
2019-05-09T02:26:23.856Z,8.87
2019-05-09T02:31:28.228Z,9.60
2019-05-09T02:36:33.179Z,10.73
2019-05-09T02:41:39.013Z,6.07
2019-05-09T02:46:58.794Z,7.60
2019-05-09T02:52:04.254Z,5.67
2019-05-09T02:57:09.737Z,7.67
2019-05-09T03:02:19.752Z,9.97
2019-05-09T03:07:42.668Z,7.87
2019-05-09T03:12:50.265Z,10.87
2019-05-09T03:17:54.812Z,10.80
2019-05-09T03:22:59.782Z,8.17
2019-05-09T03:28:09.843Z,11.00
2019-05-09T03:33:15.092Z,10.67
2019-05-09T03:38:20.076Z,10.57
2019-05-09T03:43:27.312Z,10.83
2019-05-09T03:48:33.494Z,10.50
2019-05-09T03:53:38.523Z,11.60
2019-05-09T03:58:43.575Z,11.33
2019-05-09T04:03:48.559Z,11.20
2019-05-09T04:08:54.607Z,9.60
2019-05-09T04:14:20.967Z,8.90
2019-05-09T04:19:24.602Z,10.90
2019-05-09T04:24:30.566Z,10.67
2019-05-09T04:29:37.397Z,6.97
2019-05-09T04:34:43.196Z,12.63
2019-05-09T04:39:48.189Z,11.57
2019-05-09T04:44:57.302Z,11.27
2019-05-09T04:50:01.498Z,10.73
2019-05-09T04:55:07.935Z,11.80
2019-05-09T05:00:14.722Z,11.80
2019-05-09T05:05:19.779Z,13.70
2019-05-09T05:10:24.883Z,11.07
2019-05-09T05:15:29.848Z,11.37
2019-05-09T05:20:34.904Z,12.67
2019-05-09T05:25:39.860Z,11.43
2019-05-09T05:36:01.440Z,11.50
2019-05-09T05:41:08.001Z,12.83
2019-05-09T05:46:31.379Z,4.57
2019-05-09T05:51:51.363Z,13.67
2019-05-09T05:56:57.851Z,10.20
2019-05-09T06:02:03.289Z,11.67
2019-05-09T06:07:08.379Z,11.37
2019-05-09T06:12:14.534Z,10.13
2019-05-09T06:17:21.364Z,14.37
2019-05-09T06:22:28.012Z,10.33
2019-05-09T06:27:33.203Z,10.27
2019-05-09T06:32:38.582Z,11.87
2019-05-09T06:37:43.795Z,11.90
2019-05-09T06:42:49.078Z,10.57
2019-05-09T06:47:54.040Z,11.20
2019-05-09T06:52:59.075Z,12.47
2019-05-09T06:58:21.854Z,12.50
2019-05-09T07:03:40.311Z,12.07
2019-05-09T07:09:03.069Z,13.60
2019-05-09T07:14:09.895Z,12.17
2019-05-09T07:19:17.264Z,12.63
2019-05-09T07:24:22.239Z,10.57
2019-05-09T07:29:28.940Z,13.97
2019-05-09T07:34:41.161Z,13.20
2019-05-09T07:39:48.320Z,14.00
2019-05-09T07:44:52.722Z,13.03
2019-05-09T07:49:58.537Z,12.53
2019-05-09T07:55:04.956Z,13.30
2019-05-09T08:00:10.376Z,12.33
2019-05-09T08:05:18.430Z,12.20
2019-05-09T08:10:23.544Z,10.00
2019-05-09T08:15:28.588Z,8.27
2019-05-09T08:20:33.608Z,7.97
2019-05-09T08:25:38.729Z,14.07
2019-05-09T08:30:43.851Z,13.43
2019-05-09T08:35:52.511Z,15.43
2019-05-09T08:41:09.694Z,14.03
2019-05-09T08:46:14.982Z,14.57
2019-05-09T08:51:37.761Z,15.23
2019-05-09T08:56:34.156Z,17.40
2019-05-09T09:02:01.692Z,16.77
2019-05-09T09:06:48.181Z,15.87
2019-05-09T09:11:52.559Z,20.63
2019-05-09T09:16:57.806Z,19.20
2019-05-09T09:22:02.831Z,13.23
2019-05-09T09:27:07.959Z,18.10
2019-05-09T09:32:14.023Z,9.50
2019-05-09T09:37:19.072Z,16.27
2019-05-09T09:42:24.195Z,17.27
2019-05-09T09:47:29.327Z,17.73
2019-05-09T09:52:34.662Z,21.30
2019-05-09T09:57:39.667Z,15.93
2019-05-09T10:02:44.826Z,18.57
2019-05-09T10:07:49.926Z,17.23
2019-05-09T10:12:54.845Z,18.83
2019-05-09T10:18:10.287Z,19.83
2019-05-09T10:23:19.003Z,23.37
2019-05-09T10:28:22.077Z,15.93
2019-05-09T10:33:28.064Z,16.77
2019-05-09T10:38:33.160Z,20.00
2019-05-09T10:43:42.746Z,20.13
2019-05-09T10:48:49.418Z,17.90
2019-05-09T10:53:54.375Z,21.13
2019-05-09T10:58:59.500Z,17.30
2019-05-09T11:04:04.704Z,18.20
2019-05-09T11:09:10.036Z,19.90
2019-05-09T11:14:31.653Z,19.73
2019-05-09T11:19:21.696Z,18.63
2019-05-09T11:24:41.424Z,16.07
2019-05-09T11:29:33.588Z,16.13
2019-05-09T11:34:38.624Z,14.90
2019-05-09T11:39:43.585Z,17.17
2019-05-09T11:44:48.555Z,17.83
2019-05-09T11:49:53.519Z,16.50
2019-05-09T11:54:58.560Z,16.67
2019-05-09T12:00:04.931Z,14.37
2019-05-09T12:05:10.447Z,15.33
2019-05-09T12:10:15.652Z,13.13
2019-05-09T12:15:20.756Z,9.43
2019-05-09T12:20:27.743Z,15.47
2019-05-09T12:25:32.602Z,13.67
2019-05-09T12:30:38.032Z,13.37
2019-05-09T12:35:43.235Z,11.43
2019-05-09T12:40:48.346Z,14.57
2019-05-09T12:45:53.275Z,13.30
2019-05-09T12:50:58.959Z,13.47
2019-05-09T12:56:04.291Z,14.83
2019-05-09T13:01:10.323Z,14.50
2019-05-09T13:06:19.570Z,12.97
2019-05-09T13:11:22.182Z,12.63
2019-05-09T13:16:43.960Z,9.97
2019-05-09T13:21:38.376Z,15.03
2019-05-09T13:26:43.854Z,15.77
2019-05-09T13:31:48.891Z,17.00
2019-05-09T13:36:53.958Z,12.63
2019-05-09T13:41:58.933Z,13.67
2019-05-09T13:47:04.065Z,16.43
2019-05-09T13:52:10.194Z,17.63
2019-05-09T13:57:15.324Z,14.50
2019-05-09T14:02:20.503Z,14.30
2019-05-09T14:07:27.761Z,16.77
2019-05-09T14:12:32.061Z,14.90
2019-05-09T14:17:46.027Z,14.13
2019-05-09T14:22:43.760Z,14.30
2019-05-09T14:27:52.108Z,14.00
2019-05-09T14:32:55.496Z,16.63
2019-05-09T14:38:00.938Z,16.73
2019-05-09T14:43:06.093Z,16.57
2019-05-09T14:48:11.056Z,14.20
2019-05-09T14:53:18.063Z,14.60
2019-05-09T14:58:22.707Z,12.37
2019-05-09T15:03:27.880Z,10.23
2019-05-09T15:08:32.931Z,10.70
2019-05-09T15:13:37.916Z,16.73
2019-05-09T15:18:43.023Z,16.33
2019-05-09T15:23:48.301Z,16.43
2019-05-09T15:28:53.260Z,15.33
2019-05-09T15:33:58.327Z,14.87
2019-05-09T15:39:07.865Z,11.40
2019-05-09T15:44:12.050Z,15.63
2019-05-09T15:49:18.346Z,15.33
2019-05-09T15:54:23.532Z,14.37
2019-05-09T15:59:28.656Z,14.47
2019-05-09T16:04:33.759Z,13.43
2019-05-09T16:09:38.894Z,14.67
2019-05-09T16:14:44.084Z,13.00
2019-05-09T16:19:49.072Z,16.60
2019-05-09T16:24:54.103Z,15.67
2019-05-09T16:30:00.240Z,16.07
2019-05-09T16:35:07.747Z,25.27
2019-05-09T16:40:12.391Z,12.73
2019-05-09T16:45:18.353Z,17.00
2019-05-09T16:50:23.515Z,17.60
2019-05-09T16:55:31.382Z,20.10
2019-05-09T17:00:53.940Z,16.40
2019-05-09T17:05:59.035Z,18.63
2019-05-09T17:11:04.168Z,19.63
2019-05-09T17:16:09.342Z,16.23
2019-05-09T17:21:28.161Z,16.90
2019-05-09T17:26:33.244Z,20.97
2019-05-09T17:31:38.483Z,22.30
2019-05-09T17:36:43.419Z,21.40
2019-05-09T17:41:48.519Z,21.37
2019-05-09T17:46:53.655Z,20.90
2019-05-09T17:51:58.676Z,17.70
2019-05-09T17:57:04.511Z,20.13
2019-05-09T18:02:09.643Z,19.00
2019-05-09T18:07:14.743Z,19.13
2019-05-09T18:12:19.835Z,18.43
2019-05-09T18:17:24.930Z,22.53
2019-05-09T18:22:31.153Z,19.47
2019-05-09T18:27:37.883Z,20.03
2019-05-09T18:32:53.787Z,19.80
2019-05-09T18:37:59.439Z,22.10
2019-05-09T18:43:04.835Z,26.30
2019-05-09T18:48:09.820Z,24.00
2019-05-09T18:53:14.876Z,15.67
2019-05-09T18:58:20.079Z,23.87
2019-05-09T19:03:25.269Z,22.73
2019-05-09T19:08:30.304Z,18.83
2019-05-09T19:13:35.470Z,17.20
2019-05-09T19:18:42.119Z,17.03
2019-05-09T19:23:47.315Z,20.77
2019-05-09T19:28:52.294Z,21.77
2019-05-09T19:33:57.272Z,19.87
2019-05-09T19:39:02.377Z,27.10
2019-05-09T19:44:07.566Z,20.27
2019-05-09T19:49:12.690Z,22.47
2019-05-09T19:54:17.743Z,21.03
2019-05-09T19:59:22.865Z,21.70
2019-05-09T20:04:27.947Z,31.20
2019-05-09T20:09:46.741Z,22.87
2019-05-09T20:14:53.527Z,23.67
2019-05-09T20:19:58.556Z,21.50
2019-05-09T20:25:04.959Z,24.70
2019-05-09T20:30:11.331Z,23.10
2019-05-09T20:35:17.327Z,18.73
2019-05-09T20:40:22.627Z,20.23
2019-05-09T20:45:27.972Z,20.13
2019-05-09T20:50:34.223Z,18.60
2019-05-09T20:55:39.613Z,18.93
2019-05-09T21:00:44.978Z,18.20
2019-05-09T21:05:50.208Z,19.03
2019-05-09T21:10:55.529Z,20.77
2019-05-09T21:16:00.907Z,18.37
2019-05-09T21:21:06.194Z,20.20
2019-05-09T21:26:11.491Z,17.00
2019-05-09T21:31:16.792Z,18.63
2019-05-09T21:36:22.743Z,15.93
2019-05-09T21:41:27.795Z,15.90
2019-05-09T21:46:32.922Z,15.53
2019-05-09T21:51:38.967Z,15.23
2019-05-09T21:56:44.021Z,15.10
2019-05-09T22:01:49.306Z,15.20
2019-05-09T22:06:54.411Z,16.13
2019-05-09T22:12:00.699Z,14.67
2019-05-09T22:17:10.460Z,14.73
2019-05-09T22:22:15.511Z,16.47
2019-05-09T22:27:20.639Z,19.03
2019-05-09T22:32:25.758Z,15.93
2019-05-09T22:37:30.950Z,15.70
2019-05-09T22:42:36.438Z,16.23
2019-05-09T22:47:41.571Z,14.77
2019-05-09T22:52:46.875Z,16.00
2019-05-09T22:57:51.831Z,13.07
2019-05-09T23:02:56.928Z,13.60
2019-05-09T23:08:02.032Z,14.57
2019-05-09T23:13:07.051Z,15.83
2019-05-09T23:18:12.112Z,14.97
2019-05-09T23:23:21.743Z,18.53
2019-05-09T23:28:27.643Z,13.37
2019-05-09T23:33:34.423Z,14.30
2019-05-09T23:38:57.636Z,19.40
2019-05-09T23:44:03.982Z,13.97
2019-05-09T23:49:08.932Z,20.00
2019-05-09T23:54:45.091Z,17.23
2019-05-09T23:59:58.663Z,16.27
